Time;durP1;ratioP1;P1;durP2;ratioP2;P2;SDS_P1;SDS_P2;PMS_P1;PMS_P2;Temp;Humidity;BMP_temperature;BMP_pressure;BME280_temperature;BME280_humidity;BME280_pressure;Samples;Min_cycle;Max_cycle;Signal;HPM_P1;HPM_P2
2023/07/26 00:00:16;;;;;;;20.77;19.17;;;18.10;1.00;;;;;;4960515;28;20485;-86
2023/07/26 00:02:42;;;;;;;23.83;21.75;;;18.10;1.00;;;;;;4942666;28;20713;-86
2023/07/26 00:05:07;;;;;;;19.70;18.20;;;18.10;1.00;;;;;;4952763;29;20066;-86
2023/07/26 00:07:33;;;;;;;21.00;19.17;;;18.10;1.00;;;;;;4968468;28;20051;-86
2023/07/26 00:09:59;;;;;;;22.30;20.63;;;18.10;1.00;;;;;;4970196;28;20130;-86
2023/07/26 00:12:26;;;;;;;21.25;19.55;;;18.20;1.00;;;;;;4953017;28;20030;-86
2023/07/26 00:14:52;;;;;;;20.45;18.88;;;18.20;1.00;;;;;;4967676;28;20129;-86
2023/07/26 00:17:18;;;;;;;20.98;19.45;;;18.20;1.00;;;;;;4953945;28;20038;-86
2023/07/26 00:19:44;;;;;;;19.38;17.90;;;18.20;1.00;;;;;;4955816;28;20415;-86
2023/07/26 00:22:10;;;;;;;20.27;18.55;;;18.20;1.00;;;;;;4954102;28;20146;-86
2023/07/26 00:24:35;;;;;;;17.88;16.58;;;18.20;1.00;;;;;;4954225;28;20046;-86
2023/07/26 00:27:01;;;;;;;19.23;17.65;;;18.40;1.00;;;;;;4954223;28;20043;-86
2023/07/26 00:29:27;;;;;;;18.45;17.15;;;18.20;1.00;;;;;;4954607;28;20042;-86
2023/07/26 00:31:52;;;;;;;22.63;20.83;;;18.30;1.00;;;;;;4968825;28;20043;-86
2023/07/26 00:34:18;;;;;;;20.15;18.60;;;18.30;1.00;;;;;;4967790;28;20039;-86
2023/07/26 00:36:44;;;;;;;19.77;18.23;;;18.20;1.00;;;;;;4953872;28;20042;-87
2023/07/26 00:39:10;;;;;;;21.58;20.13;;;18.20;1.00;;;;;;4970174;28;20042;-86
2023/07/26 00:41:35;;;;;;;22.00;20.38;;;18.30;1.00;;;;;;4953309;28;20043;-86
2023/07/26 00:44:01;;;;;;;21.27;19.60;;;18.30;1.00;;;;;;4950211;28;20381;-86
2023/07/26 00:46:27;;;;;;;23.27;21.20;;;18.30;1.00;;;;;;4951386;28;20042;-86
2023/07/26 00:48:53;;;;;;;20.13;18.63;;;18.20;1.00;;;;;;4954971;28;20133;-86
2023/07/26 00:51:21;;;;;;;20.38;18.75;;;18.20;1.00;;;;;;4971718;28;20436;-86
2023/07/26 00:53:47;;;;;;;22.00;20.40;;;18.20;1.00;;;;;;4950070;28;20039;-86
2023/07/26 00:56:13;;;;;;;22.30;20.65;;;18.20;1.00;;;;;;4954827;28;20512;-87
2023/07/26 00:58:39;;;;;;;22.98;21.17;;;18.20;1.00;;;;;;4954093;28;20536;-86
2023/07/26 01:01:05;;;;;;;27.48;25.13;;;18.20;1.00;;;;;;4944006;28;20661;-86
2023/07/26 01:03:31;;;;;;;29.80;27.40;;;18.10;20.00;;;;;;4953488;28;20046;-86
2023/07/26 01:06:25;;;;;;;31.70;29.05;;;18.20;88.90;;;;;;4953669;28;20074;-87
2023/07/26 01:09:04;;;;;;;34.40;31.42;;;18.10;99.90;;;;;;4941980;29;20407;-86
2023/07/26 01:11:55;;;;;;;35.00;31.98;;;18.00;99.90;;;;;;4936130;29;20134;-86
2023/07/26 01:14:31;;;;;;;35.97;32.97;;;17.90;99.90;;;;;;4963431;28;20605;-86
2023/07/26 01:16:58;;;;;;;37.30;33.72;;;17.70;1.00;;;;;;4945321;28;20053;-86
2023/07/26 01:19:23;;;;;;;37.55;34.25;;;17.60;1.00;;;;;;4952439;28;20046;-86
2023/07/26 01:21:49;;;;;;;36.63;33.40;;;17.60;1.00;;;;;;4952403;28;20066;-86
2023/07/26 01:24:15;;;;;;;35.92;32.97;;;17.50;21.20;;;;;;4956131;28;20051;-87
2023/07/26 01:26:40;;;;;;;36.83;33.92;;;17.50;93.50;;;;;;4965927;28;20085;-86
2023/07/26 01:29:06;;;;;;;37.55;34.45;;;17.40;99.90;;;;;;4969730;28;20137;-86
2023/07/26 01:31:32;;;;;;;35.67;32.80;;;17.40;99.90;;;;;;4952729;28;20477;-87
2023/07/26 01:33:59;;;;;;;33.58;30.92;;;17.40;99.90;;;;;;4944227;28;20044;-86
2023/07/26 01:36:29;;;;;;;31.77;29.42;;;17.30;99.90;;;;;;4947868;28;20105;-86
2023/07/26 01:38:55;;;;;;;33.22;30.60;;;17.30;99.90;;;;;;4968841;28;20522;-87
2023/07/26 01:41:22;;;;;;;32.88;30.33;;;17.90;99.90;;;;;;4954048;28;20069;-87
2023/07/26 01:43:48;;;;;;;32.72;29.95;;;17.10;99.90;;;;;;4943472;28;20042;-87
2023/07/26 01:46:14;;;;;;;35.72;32.80;;;17.10;99.90;;;;;;4960077;28;20050;-87
2023/07/26 01:48:40;;;;;;;37.25;34.08;;;17.20;99.90;;;;;;4968075;28;20043;-86
2023/07/26 01:51:06;;;;;;;36.63;33.40;;;17.20;1.00;;;;;;4949452;28;20035;-86
2023/07/26 01:53:34;;;;;;;37.30;34.15;;;17.20;1.00;;;;;;4955187;28;20043;-86
2023/07/26 01:56:00;;;;;;;37.40;34.33;;;16.30;99.90;;;;;;4957567;28;20089;-86
2023/07/26 01:58:26;;;;;;;37.40;34.20;;;17.10;99.90;;;;;;4957482;28;20053;-86
2023/07/26 02:00:52;;;;;;;37.42;34.08;;;17.10;1.00;;;;;;4956448;28;20035;-86
2023/07/26 02:03:18;;;;;;;36.75;33.65;;;17.20;1.00;;;;;;4950939;28;20127;-86
2023/07/26 02:05:45;;;;;;;34.75;32.15;;;17.20;99.90;;;;;;4949507;28;20050;-86
2023/07/26 02:08:11;;;;;;;36.90;33.70;;;17.10;99.90;;;;;;4957833;28;20034;-86
2023/07/26 02:10:38;;;;;;;37.00;33.85;;;17.20;99.90;;;;;;4958222;28;20361;-86
2023/07/26 02:13:04;;;;;;;35.95;33.03;;;17.20;1.00;;;;;;4956719;28;20039;-86
2023/07/26 02:15:31;;;;;;;35.45;32.53;;;17.20;99.90;;;;;;4956525;28;20043;-86
2023/07/26 02:17:57;;;;;;;29.90;27.60;;;17.20;99.90;;;;;;4971265;28;20125;-87
2023/07/26 02:20:22;;;;;;;25.73;23.55;;;17.20;1.00;;;;;;4956593;28;20122;-86
2023/07/26 02:22:48;;;;;;;26.95;24.58;;;16.90;99.90;;;;;;4970697;28;20065;-86
2023/07/26 02:25:14;;;;;;;30.35;27.75;;;16.70;99.90;;;;;;4955774;28;20050;-86
2023/07/26 02:27:40;;;;;;;34.15;31.15;;;16.50;99.90;;;;;;4955748;28;20039;-86
2023/07/26 02:30:07;;;;;;;36.33;33.00;;;16.50;99.90;;;;;;4954581;29;20055;-86
2023/07/26 02:32:32;;;;;;;35.65;32.35;;;16.50;99.90;;;;;;4955574;28;20608;-86
2023/07/26 02:34:58;;;;;;;33.42;30.58;;;16.50;1.00;;;;;;4953550;28;20121;-86
2023/07/26 02:37:23;;;;;;;35.08;31.85;;;16.40;30.00;;;;;;4944114;28;20050;-86
2023/07/26 02:39:51;;;;;;;36.45;32.92;;;16.40;99.90;;;;;;4955418;28;20042;-86
2023/07/26 02:42:17;;;;;;;37.10;34.10;;;16.30;99.90;;;;;;4968542;28;20079;-86
2023/07/26 02:44:43;;;;;;;37.38;34.22;;;16.30;99.90;;;;;;4947776;28;20497;-86
2023/07/26 02:47:09;;;;;;;40.10;36.90;;;16.50;99.90;;;;;;4970698;28;20042;-86
2023/07/26 02:49:34;;;;;;;39.13;35.58;;;16.50;1.00;;;;;;4958443;28;20043;-86
2023/07/26 02:52:00;;;;;;;41.03;37.80;;;16.40;1.00;;;;;;4952518;28;20030;-86
2023/07/26 02:54:25;;;;;;;39.42;36.38;;;16.40;1.00;;;;;;4952463;28;20043;-86
2023/07/26 02:56:51;;;;;;;38.85;35.53;;;16.60;93.90;;;;;;4957181;28;20189;-86
2023/07/26 02:59:18;;;;;;;39.00;35.90;;;16.50;99.90;;;;;;4973125;28;20035;-86
2023/07/26 03:01:44;;;;;;;38.35;35.35;;;16.60;99.90;;;;;;4956191;28;20086;-86
2023/07/26 03:04:11;;;;;;;35.83;32.83;;;16.60;1.00;;;;;;4955601;28;20085;-86
2023/07/26 03:06:37;;;;;;;39.17;36.20;;;16.40;1.00;;;;;;4956635;28;20497;-86
2023/07/26 03:09:03;;;;;;;40.65;37.53;;;16.40;99.90;;;;;;4957216;28;20039;-86
2023/07/26 03:11:28;;;;;;;37.45;34.30;;;16.40;99.90;;;;;;4951354;28;20564;-86
2023/07/26 03:13:55;;;;;;;38.05;34.95;;;16.30;99.90;;;;;;4943737;28;20069;-86
2023/07/26 03:16:21;;;;;;;39.55;36.30;;;16.60;1.00;;;;;;4956445;28;20031;-86
2023/07/26 03:18:47;;;;;;;38.72;35.63;;;16.50;1.00;;;;;;4951869;28;20408;-86
2023/07/26 03:21:13;;;;;;;38.70;35.70;;;16.60;1.00;;;;;;4957498;28;20046;-86
2023/07/26 03:23:39;;;;;;;39.30;36.22;;;16.50;68.60;;;;;;4942452;28;20539;-86
2023/07/26 03:26:05;;;;;;;39.22;36.25;;;16.70;99.90;;;;;;4973197;28;20078;-86
2023/07/26 03:28:30;;;;;;;38.92;35.75;;;16.50;99.90;;;;;;4941510;29;20040;-86
2023/07/26 03:30:56;;;;;;;38.47;35.28;;;16.80;99.90;;;;;;4953973;29;20039;-86
2023/07/26 03:33:22;;;;;;;39.13;35.95;;;16.50;99.90;;;;;;4940848;28;20035;-86
2023/07/26 03:35:48;;;;;;;38.67;35.33;;;16.80;99.90;;;;;;4954629;28;20058;-86
2023/07/26 03:38:14;;;;;;;37.88;34.78;;;16.80;1.00;;;;;;4953469;28;20047;-86
2023/07/26 03:40:40;;;;;;;39.65;36.50;;;16.80;1.00;;;;;;4963795;28;20054;-86
2023/07/26 03:43:09;;;;;;;41.97;38.78;;;16.70;1.00;;;;;;4955027;28;20053;-86
2023/07/26 03:45:35;;;;;;;43.10;39.50;;;16.90;1.00;;;;;;4956701;28;20412;-86
2023/07/26 03:48:01;;;;;;;44.03;40.63;;;16.70;2.80;;;;;;4968386;28;20077;-86
2023/07/26 03:50:26;;;;;;;38.85;35.65;;;16.70;43.80;;;;;;4956260;28;20038;-86
2023/07/26 03:52:52;;;;;;;38.35;35.25;;;16.70;90.30;;;;;;4962275;28;20043;-86
2023/07/26 03:55:17;;;;;;;41.75;38.35;;;16.80;99.90;;;;;;4969378;28;20038;-86
2023/07/26 03:57:44;;;;;;;42.20;38.90;;;16.70;99.90;;;;;;4950972;28;20051;-85
2023/07/26 04:00:10;;;;;;;38.45;35.33;;;16.80;99.90;;;;;;4955132;28;20054;-85
2023/07/26 04:02:36;;;;;;;40.72;36.55;;;17.00;99.90;;;;;;4964457;28;20058;-85
2023/07/26 04:05:02;;;;;;;39.70;36.42;;;17.10;99.90;;;;;;4952472;29;20043;-85
2023/07/26 04:07:27;;;;;;;41.20;37.88;;;16.90;1.00;;;;;;4957382;28;20527;-85
2023/07/26 04:09:53;;;;;;;40.92;37.63;;;17.10;1.00;;;;;;4966618;28;20062;-85
2023/07/26 04:12:19;;;;;;;40.20;37.13;;;16.90;1.00;;;;;;4938019;29;20027;-85
2023/07/26 04:14:44;;;;;;;40.25;37.15;;;17.10;25.50;;;;;;4966338;28;20053;-85
2023/07/26 04:17:10;;;;;;;40.03;36.67;;;16.90;89.30;;;;;;4941540;28;20053;-86
2023/07/26 04:19:36;;;;;;;41.50;38.22;;;17.20;99.90;;;;;;4972201;28;20039;-86
2023/07/26 04:22:02;;;;;;;41.20;37.65;;;16.90;99.90;;;;;;4955603;28;20461;-86
2023/07/26 04:24:27;;;;;;;42.78;39.28;;;17.20;99.90;;;;;;4954274;28;20088;-86
2023/07/26 04:26:53;;;;;;;42.55;39.05;;;17.20;99.90;;;;;;4966948;28;20050;-86
2023/07/26 04:29:19;;;;;;;40.53;37.25;;;16.90;99.90;;;;;;4955763;28;20046;-86
2023/07/26 04:31:45;;;;;;;40.28;36.55;;;16.90;1.00;;;;;;4968616;28;20416;-86
2023/07/26 04:34:12;;;;;;;40.33;36.95;;;17.00;1.00;;;;;;4954878;28;20050;-86
2023/07/26 04:36:38;;;;;;;40.13;36.92;;;16.90;1.00;;;;;;4955664;28;20039;-86
2023/07/26 04:39:04;;;;;;;41.22;37.65;;;17.20;1.00;;;;;;4957989;28;20428;-86
2023/07/26 04:41:29;;;;;;;42.22;38.75;;;16.90;1.00;;;;;;4957502;28;20048;-86
2023/07/26 04:43:55;;;;;;;42.53;38.60;;;16.70;1.00;;;;;;4954738;28;20062;-86
2023/07/26 04:46:21;;;;;;;44.40;40.75;;;16.70;1.00;;;;;;4963027;28;20035;-85
2023/07/26 04:48:47;;;;;;;40.83;37.17;;;16.70;1.00;;;;;;4943099;29;20540;-86
2023/07/26 04:51:13;;;;;;;41.50;38.08;;;16.80;97.00;;;;;;4956519;28;20046;-86
2023/07/26 04:53:39;;;;;;;42.92;39.53;;;16.80;99.90;;;;;;4951943;28;20089;-86
2023/07/26 04:56:04;;;;;;;41.58;38.28;;;17.00;1.00;;;;;;4953937;28;20043;-86
2023/07/26 04:58:30;;;;;;;42.30;38.80;;;17.00;99.90;;;;;;4959228;28;20030;-86
2023/07/26 05:00:56;;;;;;;39.72;36.40;;;16.70;99.90;;;;;;4953642;28;20106;-86
2023/07/26 05:03:21;;;;;;;41.25;37.53;;;17.00;99.90;;;;;;4962554;28;20046;-86
2023/07/26 05:05:51;;;;;;;39.90;36.30;;;16.60;1.00;;;;;;4942270;28;20050;-86
2023/07/26 05:08:17;;;;;;;42.47;38.60;;;16.80;1.00;;;;;;4944609;28;20405;-86
2023/07/26 05:10:47;;;;;;;43.42;39.35;;;16.60;1.00;;;;;;4942792;28;20042;-86
2023/07/26 05:13:12;;;;;;;40.03;36.38;;;16.60;1.00;;;;;;4946964;29;20041;-86
2023/07/26 05:15:38;;;;;;;40.67;36.78;;;16.70;1.90;;;;;;4949396;28;20026;-86
2023/07/26 05:18:04;;;;;;;41.97;38.17;;;16.90;11.00;;;;;;4953638;28;20047;-86
2023/07/26 05:20:29;;;;;;;41.10;37.00;;;16.90;3.50;;;;;;4965153;28;20050;-86
2023/07/26 05:22:55;;;;;;;40.72;36.75;;;16.60;6.10;;;;;;4964518;28;20500;-86
2023/07/26 05:25:21;;;;;;;40.60;36.38;;;16.90;6.00;;;;;;4964181;28;20046;-87
2023/07/26 05:27:47;;;;;;;39.80;36.05;;;17.00;1.00;;;;;;4948156;28;20085;-86
2023/07/26 05:30:15;;;;;;;38.78;35.17;;;16.80;1.00;;;;;;4951010;28;20054;-86
2023/07/26 05:32:40;;;;;;;38.42;34.88;;;16.70;1.40;;;;;;4945559;28;20042;-86
2023/07/26 05:35:06;;;;;;;40.08;36.53;;;17.00;28.50;;;;;;4951775;29;20046;-86
2023/07/26 05:37:34;;;;;;;38.25;34.88;;;16.90;78.60;;;;;;4960485;28;20598;-86
2023/07/26 05:40:00;;;;;;;39.05;35.60;;;17.10;99.70;;;;;;4952152;28;20481;-85
2023/07/26 05:42:26;;;;;;;39.00;35.10;;;17.10;99.90;;;;;;4950044;28;20046;-85
2023/07/26 05:44:51;;;;;;;37.00;33.20;;;17.10;99.90;;;;;;4959014;28;20045;-85
2023/07/26 05:47:17;;;;;;;35.80;32.45;;;16.70;99.90;;;;;;4950330;28;20039;-85
2023/07/26 05:49:43;;;;;;;37.67;34.08;;;16.60;99.90;;;;;;4960810;28;20085;-85
2023/07/26 05:52:10;;;;;;;37.28;33.90;;;17.00;99.90;;;;;;4956716;28;20054;-85
2023/07/26 05:54:36;;;;;;;40.40;36.30;;;17.10;99.90;;;;;;4952785;28;20049;-86
2023/07/26 05:57:02;;;;;;;36.88;33.85;;;16.80;99.90;;;;;;4950839;28;20039;-86
2023/07/26 05:59:27;;;;;;;37.25;34.03;;;17.10;99.90;;;;;;4942261;28;20035;-86
2023/07/26 06:01:53;;;;;;;38.03;34.65;;;17.10;99.90;;;;;;4950089;28;20174;-86
2023/07/26 06:04:19;;;;;;;36.60;33.38;;;17.10;99.90;;;;;;4952203;28;20190;-86
2023/07/26 06:06:45;;;;;;;38.33;34.95;;;17.10;99.90;;;;;;4953653;28;20460;-86
2023/07/26 06:09:11;;;;;;;36.55;33.03;;;17.00;99.90;;;;;;4936755;28;20520;-86
2023/07/26 06:11:36;;;;;;;36.63;33.58;;;16.50;99.90;;;;;;4948171;28;20043;-87
2023/07/26 06:14:02;;;;;;;37.00;33.63;;;16.70;99.90;;;;;;4937025;28;20047;-87
2023/07/26 06:16:28;;;;;;;38.13;34.78;;;16.60;99.90;;;;;;4945538;28;20047;-86
2023/07/26 06:18:53;;;;;;;36.47;33.60;;;16.70;99.90;;;;;;4945053;28;20512;-86
2023/07/26 06:21:19;;;;;;;36.33;33.42;;;16.70;99.90;;;;;;4947641;28;20082;-86
2023/07/26 06:23:46;;;;;;;37.50;34.13;;;16.90;99.90;;;;;;4948631;28;20035;-86
2023/07/26 06:26:12;;;;;;;35.97;32.88;;;17.00;99.90;;;;;;4959471;28;20126;-86
2023/07/26 06:28:37;;;;;;;35.85;32.70;;;16.50;99.90;;;;;;4938527;29;20470;-87
2023/07/26 06:31:03;;;;;;;35.63;32.35;;;16.80;99.90;;;;;;4942072;28;20405;-87
2023/07/26 06:33:29;;;;;;;35.17;32.33;;;16.90;99.90;;;;;;4950583;28;20516;-87
2023/07/26 06:35:55;;;;;;;37.45;34.45;;;16.70;99.90;;;;;;4952507;28;20039;-86
2023/07/26 06:38:21;;;;;;;36.17;33.15;;;16.80;99.90;;;;;;4960829;28;20039;-86
2023/07/26 06:40:48;;;;;;;34.88;32.05;;;17.00;99.90;;;;;;4947997;28;20255;-87
2023/07/26 06:43:13;;;;;;;36.40;33.28;;;17.00;99.90;;;;;;4953676;29;20043;-86
2023/07/26 06:45:45;;;;;;;36.88;33.78;;;17.00;99.90;;;;;;4944863;28;20058;-87
2023/07/26 06:48:10;;;;;;;37.28;34.28;;;17.00;99.90;;;;;;4944546;28;20043;-86
2023/07/26 06:50:40;;;;;;;38.15;35.00;;;17.00;99.90;;;;;;4956238;28;20050;-86
2023/07/26 06:53:06;;;;;;;35.90;33.10;;;16.80;99.90;;;;;;4957287;28;20042;-87
2023/07/26 06:55:33;;;;;;;38.17;34.92;;;17.00;99.90;;;;;;4941529;28;20047;-86
2023/07/26 06:57:59;;;;;;;37.00;34.00;;;17.00;99.90;;;;;;4946674;28;20043;-87
2023/07/26 07:00:24;;;;;;;38.90;35.65;;;16.50;99.90;;;;;;4956737;28;20499;-86
2023/07/26 07:03:01;;;;;;;36.78;33.78;;;16.60;99.90;;;;;;4968198;28;20556;-86
2023/07/26 07:05:28;;;;;;;40.10;36.80;;;16.70;99.90;;;;;;4942967;28;20142;-86
2023/07/26 07:07:53;;;;;;;40.42;36.78;;;17.30;99.90;;;;;;4947306;28;20039;-87
2023/07/26 07:10:20;;;;;;;38.75;35.15;;;17.20;99.90;;;;;;4944443;28;20041;-86
2023/07/26 07:12:46;;;;;;;37.63;34.55;;;16.80;99.90;;;;;;4964392;28;20069;-85
2023/07/26 07:15:12;;;;;;;33.80;31.30;;;17.30;99.90;;;;;;4960517;28;20588;-85
2023/07/26 07:17:37;;;;;;;35.72;32.92;;;17.40;99.90;;;;;;4967096;28;20117;-86
2023/07/26 07:20:05;;;;;;;34.08;31.38;;;16.90;99.90;;;;;;4966240;28;20015;-86
2023/07/26 07:22:31;;;;;;;33.97;31.08;;;17.40;99.90;;;;;;4952127;28;20055;-87
2023/07/26 07:24:56;;;;;;;31.65;29.15;;;17.00;99.90;;;;;;4960513;28;20145;-87
2023/07/26 07:27:23;;;;;;;31.08;28.50;;;17.10;99.90;;;;;;4943800;28;20036;-87
2023/07/26 07:29:48;;;;;;;29.85;27.33;;;17.40;99.90;;;;;;4945994;28;20035;-87
2023/07/26 07:32:14;;;;;;;25.95;23.73;;;18.00;99.90;;;;;;4950399;28;20046;-88
2023/07/26 07:34:40;;;;;;;26.20;24.05;;;17.80;99.90;;;;;;4955450;28;20042;-87
2023/07/26 07:37:05;;;;;;;28.73;26.48;;;18.10;99.90;;;;;;4953290;28;20098;-87
2023/07/26 07:39:32;;;;;;;26.42;24.23;;;17.80;99.90;;;;;;4967369;28;20042;-87
2023/07/26 07:41:58;;;;;;;28.88;26.48;;;18.10;99.90;;;;;;4968834;28;20386;-86
2023/07/26 07:44:24;;;;;;;28.17;25.98;;;17.90;99.90;;;;;;4950925;28;20070;-88
2023/07/26 07:46:50;;;;;;;30.20;27.30;;;18.10;99.90;;;;;;4963916;28;20086;-88
2023/07/26 07:49:15;;;;;;;29.88;27.58;;;18.30;99.90;;;;;;4954273;28;20049;-87
2023/07/26 07:51:42;;;;;;;34.03;31.23;;;18.50;99.90;;;;;;4951733;28;20043;-87
2023/07/26 07:54:08;;;;;;;30.75;27.80;;;18.50;99.90;;;;;;4953732;28;20045;-87
2023/07/26 07:56:33;;;;;;;30.25;27.67;;;18.90;99.90;;;;;;4954184;28;20047;-85
2023/07/26 07:58:59;;;;;;;24.23;22.23;;;19.00;99.90;;;;;;4965496;28;20047;-86
2023/07/26 08:01:24;;;;;;;23.15;21.20;;;18.80;99.90;;;;;;4949056;28;20098;-86
2023/07/26 08:03:50;;;;;;;15.95;14.75;;;18.90;99.90;;;;;;4943768;28;20154;-86
2023/07/26 08:06:17;;;;;;;16.38;15.07;;;18.70;99.90;;;;;;4958587;28;20061;-86
2023/07/26 08:08:42;;;;;;;20.02;18.00;;;18.80;9.50;;;;;;4963188;28;20073;-87
2023/07/26 08:11:08;;;;;;;21.50;19.73;;;18.80;98.00;;;;;;4947364;28;20122;-84
2023/07/26 08:13:34;;;;;;;19.70;17.80;;;18.70;99.90;;;;;;4943626;28;20070;-85
2023/07/26 08:16:00;;;;;;;18.75;17.13;;;18.90;99.90;;;;;;4949043;28;20280;-86
2023/07/26 08:18:26;;;;;;;21.02;19.08;;;18.80;1.00;;;;;;4938658;28;20054;-86
2023/07/26 08:20:52;;;;;;;19.17;17.52;;;18.90;99.90;;;;;;4960449;28;20063;-85
2023/07/26 08:23:17;;;;;;;18.02;16.48;;;19.00;1.00;;;;;;4950083;28;20117;-85
2023/07/26 08:25:43;;;;;;;16.98;14.60;;;19.40;99.90;;;;;;4954971;28;20093;-86
2023/07/26 08:28:09;;;;;;;18.63;16.83;;;19.90;99.90;;;;;;4950107;28;20078;-86
2023/07/26 08:30:35;;;;;;;14.32;12.80;;;20.40;1.00;;;;;;4964864;28;20486;-88
2023/07/26 08:33:00;;;;;;;20.67;13.57;;;20.90;99.90;;;;;;4947931;28;20052;-88
2023/07/26 08:35:26;;;;;;;18.98;13.05;;;21.20;1.00;;;;;;4942319;28;20035;-87
2023/07/26 08:37:52;;;;;;;18.88;15.95;;;21.20;99.90;;;;;;4947609;28;20129;-86
2023/07/26 08:40:20;;;;;;;20.45;18.38;;;21.40;1.00;;;;;;4946253;28;20046;-86
2023/07/26 08:42:46;;;;;;;19.90;18.00;;;21.10;99.90;;;;;;4962486;28;20046;-86
2023/07/26 08:45:12;;;;;;;25.13;22.92;;;20.90;99.90;;;;;;4956476;28;20061;-86
2023/07/26 08:47:38;;;;;;;23.50;21.23;;;20.60;99.90;;;;;;4949336;28;20097;-86
2023/07/26 08:50:05;;;;;;;26.98;24.10;;;20.60;99.90;;;;;;4947976;28;20098;-86
2023/07/26 08:52:32;;;;;;;29.45;26.48;;;20.70;99.90;;;;;;4968379;28;20058;-85
2023/07/26 08:54:59;;;;;;;30.42;27.20;;;20.70;99.90;;;;;;4964654;28;20150;-86
2023/07/26 08:57:25;;;;;;;24.90;22.67;;;20.90;99.90;;;;;;4962375;28;20043;-86
2023/07/26 08:59:51;;;;;;;23.25;21.35;;;21.30;99.90;;;;;;4945154;28;20366;-85
2023/07/26 09:02:19;;;;;;;15.48;14.23;;;21.80;99.90;;;;;;4948560;28;20049;-84
2023/07/26 09:04:45;;;;;;;17.17;15.68;;;21.40;99.90;;;;;;4939861;28;20497;-85
2023/07/26 09:07:12;;;;;;;15.30;13.80;;;21.50;99.90;;;;;;4943726;28;20047;-86
2023/07/26 09:09:38;;;;;;;14.80;13.70;;;21.50;99.90;;;;;;4947873;28;20101;-86
2023/07/26 09:12:04;;;;;;;18.17;16.60;;;21.60;99.90;;;;;;4962830;28;20041;-85
2023/07/26 09:14:31;;;;;;;17.85;16.45;;;21.50;99.90;;;;;;4948817;28;20048;-86
2023/07/26 09:16:58;;;;;;;19.70;17.77;;;21.30;48.30;;;;;;4963731;28;20050;-85
2023/07/26 09:19:32;;;;;;;21.48;19.48;;;21.10;66.60;;;;;;4948470;28;20049;-86
2023/07/26 09:22:00;;;;;;;18.58;17.15;;;20.90;14.90;;;;;;4945019;28;20153;-85
2023/07/26 09:24:42;;;;;;;18.45;16.55;;;21.10;99.90;;;;;;4957327;28;20050;-86
2023/07/26 09:27:09;;;;;;;13.52;12.40;;;21.60;99.90;;;;;;4960647;28;20047;-85
2023/07/26 09:29:36;;;;;;;14.65;13.50;;;22.00;99.90;;;;;;4938671;28;20065;-86
2023/07/26 09:32:03;;;;;;;14.48;12.93;;;22.30;99.90;;;;;;4944172;29;20126;-86
2023/07/26 09:34:29;;;;;;;11.88;10.68;;;22.80;99.90;;;;;;4965884;28;20042;-87
2023/07/26 09:36:56;;;;;;;12.77;11.75;;;23.10;87.00;;;;;;4950491;28;20041;-87
2023/07/26 09:39:26;;;;;;;15.32;13.90;;;23.30;1.00;;;;;;4950678;28;20546;-86
2023/07/26 09:42:09;;;;;;;15.98;14.68;;;23.50;1.00;;;;;;4950094;28;20070;-86
2023/07/26 09:44:35;;;;;;;15.57;14.18;;;23.20;99.90;;;;;;4958072;28;20043;-86
2023/07/26 09:47:02;;;;;;;19.67;17.75;;;23.10;1.00;;;;;;4963631;28;20046;-87
2023/07/26 09:49:29;;;;;;;20.98;19.08;;;23.20;1.00;;;;;;4964377;28;20469;-87
2023/07/26 09:52:00;;;;;;;24.42;22.48;;;22.80;1.00;;;;;;4952994;28;20058;-88
2023/07/26 09:54:30;;;;;;;20.02;18.33;;;22.70;1.00;;;;;;4947479;28;20090;-87
2023/07/26 09:56:57;;;;;;;22.58;20.48;;;22.60;1.00;;;;;;4940890;28;20039;-88
2023/07/26 09:59:28;;;;;;;17.45;15.98;;;22.70;1.00;;;;;;4957847;28;20047;-87
2023/07/26 10:01:54;;;;;;;24.02;22.13;;;22.70;1.00;;;;;;4961650;28;20054;-87
2023/07/26 10:04:49;;;;;;;21.17;19.10;;;22.60;1.00;;;;;;4950768;28;20500;-85
2023/07/26 10:07:15;;;;;;;25.98;23.27;;;22.20;1.00;;;;;;4969234;28;20043;-86
2023/07/26 10:09:46;;;;;;;22.83;20.83;;;21.80;1.00;;;;;;4960489;28;20043;-86
2023/07/26 10:12:13;;;;;;;18.60;17.08;;;21.80;1.00;;;;;;4947662;28;20047;-87
2023/07/26 10:14:39;;;;;;;16.33;14.82;;;21.90;1.00;;;;;;4957464;28;20038;-86
2023/07/26 10:17:12;;;;;;;22.42;20.52;;;21.80;1.00;;;;;;4945594;28;20034;-86
2023/07/26 10:19:45;;;;;;;20.00;18.15;;;21.60;1.00;;;;;;4965002;28;20097;-86
2023/07/26 10:22:13;;;;;;;21.60;19.90;;;21.40;1.00;;;;;;4959156;28;20070;-85
2023/07/26 10:24:42;;;;;;;18.75;17.15;;;21.30;1.00;;;;;;4966499;28;20049;-86
2023/07/26 10:27:08;;;;;;;18.85;17.25;;;21.10;1.00;;;;;;4960809;28;20050;-86
2023/07/26 10:29:35;;;;;;;16.08;14.75;;;21.00;1.00;;;;;;4955417;28;20082;-87
2023/07/26 10:32:06;;;;;;;15.18;13.85;;;21.30;1.00;;;;;;4955921;28;20038;-87
2023/07/26 10:34:33;;;;;;;17.40;16.10;;;21.60;1.00;;;;;;4970856;28;20089;-87
2023/07/26 10:36:58;;;;;;;16.92;15.43;;;21.80;1.00;;;;;;4965143;28;20043;-86
2023/07/26 10:39:34;;;;;;;14.00;12.90;;;22.10;1.00;;;;;;4954516;28;20404;-86
2023/07/26 10:41:59;;;;;;;16.30;14.77;;;22.00;99.90;;;;;;4956325;28;20047;-86
2023/07/26 10:44:25;;;;;;;19.20;17.40;;;21.90;99.90;;;;;;4965238;28;20290;-86
2023/07/26 10:47:02;;;;;;;15.88;14.30;;;21.80;99.90;;;;;;4971963;28;20118;-86
2023/07/26 10:49:30;;;;;;;15.55;14.25;;;21.70;99.90;;;;;;4946140;28;20038;-86
2023/07/26 10:52:04;;;;;;;16.75;15.23;;;21.70;99.90;;;;;;4950882;28;20039;-86
2023/07/26 10:54:44;;;;;;;16.70;15.20;;;21.50;99.90;;;;;;4946483;28;20412;-86
2023/07/26 10:57:31;;;;;;;17.15;15.52;;;21.30;99.90;;;;;;4948480;28;20046;-87
2023/07/26 11:00:10;;;;;;;15.80;14.18;;;21.50;1.00;;;;;;4944943;28;20484;-87
2023/07/26 11:02:36;;;;;;;14.93;13.55;;;21.30;99.90;;;;;;4962500;28;20049;-86
2023/07/26 11:05:10;;;;;;;13.18;11.98;;;21.40;99.90;;;;;;4948511;28;20532;-86
2023/07/26 11:07:52;;;;;;;18.08;16.60;;;21.30;99.90;;;;;;4957390;28;20569;-86
2023/07/26 11:10:30;;;;;;;14.93;13.60;;;21.40;1.00;;;;;;4963227;28;20642;-86
2023/07/26 11:13:06;;;;;;;15.50;14.00;;;21.40;99.90;;;;;;4953368;28;20049;-84
2023/07/26 11:15:34;;;;;;;14.50;13.02;;;21.40;1.00;;;;;;4962881;28;20516;-85
2023/07/26 11:17:59;;;;;;;15.02;13.52;;;21.40;1.00;;;;;;4961903;28;20043;-84
2023/07/26 11:20:25;;;;;;;17.95;16.35;;;21.50;1.00;;;;;;4954008;28;20042;-86
2023/07/26 11:22:51;;;;;;;15.60;14.07;;;21.60;1.00;;;;;;4955679;28;20070;-86
2023/07/26 11:25:17;;;;;;;13.90;12.57;;;21.70;1.00;;;;;;4949267;28;20353;-87
2023/07/26 11:27:44;;;;;;;13.20;11.90;;;21.70;99.90;;;;;;4944151;28;20042;-86
2023/07/26 11:30:17;;;;;;;11.48;10.38;;;21.40;99.90;;;;;;4951593;28;20039;-86
2023/07/26 11:32:48;;;;;;;14.45;13.18;;;21.40;99.90;;;;;;4961608;28;20650;-86
2023/07/26 11:35:19;;;;;;;13.90;12.50;;;21.30;99.90;;;;;;4951900;28;20035;-86
2023/07/26 11:37:56;;;;;;;19.48;17.67;;;21.20;99.90;;;;;;4962702;28;20035;-83
2023/07/26 11:40:22;;;;;;;16.80;15.30;;;21.10;1.00;;;;;;4962917;28;20509;-86
2023/07/26 11:42:49;;;;;;;15.35;13.98;;;21.20;1.00;;;;;;4967818;28;20488;-86
2023/07/26 11:45:15;;;;;;;14.65;13.27;;;21.30;1.00;;;;;;4959036;28;20039;-86
2023/07/26 11:47:42;;;;;;;16.05;14.65;;;21.10;99.90;;;;;;4952639;28;20050;-87
2023/07/26 11:50:09;;;;;;;12.95;11.85;;;21.20;1.00;;;;;;4955382;28;20081;-88
2023/07/26 11:52:34;;;;;;;13.55;12.40;;;21.20;99.90;;;;;;4963060;28;20043;-88
2023/07/26 11:55:03;;;;;;;14.45;13.20;;;21.10;99.90;;;;;;4945521;28;20101;-88
2023/07/26 11:57:29;;;;;;;14.63;13.20;;;21.30;1.00;;;;;;4967941;28;20043;-88
2023/07/26 11:59:58;;;;;;;12.50;11.30;;;21.40;99.90;;;;;;4944574;28;20226;-87
2023/07/26 12:02:25;;;;;;;11.05;10.05;;;21.50;99.90;;;;;;4951269;28;20011;-87
2023/07/26 12:05:15;;;;;;;12.32;11.13;;;21.40;99.90;;;;;;4951047;28;20161;-87
2023/07/26 12:07:45;;;;;;;13.82;12.40;;;21.10;99.90;;;;;;4954619;28;20042;-87
2023/07/26 12:10:10;;;;;;;11.65;10.63;;;21.20;1.00;;;;;;4945863;28;20331;-87
2023/07/26 12:12:41;;;;;;;14.82;13.52;;;21.20;99.90;;;;;;4979645;28;20081;-87
2023/07/26 12:15:10;;;;;;;10.57;9.10;;;21.40;1.00;;;;;;4951820;28;21134;-87
2023/07/26 12:17:52;;;;;;;11.75;10.77;;;21.40;99.90;;;;;;4954485;28;20488;-86
2023/07/26 12:20:19;;;;;;;13.80;12.00;;;21.10;99.90;;;;;;4949379;28;20035;-87
2023/07/26 12:22:54;;;;;;;11.88;10.77;;;21.30;99.90;;;;;;4968106;28;20138;-87
2023/07/26 12:25:21;;;;;;;13.13;11.82;;;21.30;99.90;;;;;;4970707;28;20399;-86
2023/07/26 12:27:52;;;;;;;13.50;12.30;;;21.10;99.90;;;;;;4961816;28;20040;-88
2023/07/26 12:30:19;;;;;;;12.45;11.35;;;21.40;99.90;;;;;;4966591;28;20043;-87